Calendrier et résultats N1

Saison en cours

DateÉvènementTemps/RésultatsLieu
2017-09-30 20:30:0030 septembre 2017 RHC Lyon vs AL Ploneour Lanvern2 - 5Lyon 69009
2017-10-07 20:30:007 octobre 2017 HC Dinan Quevert vs RHC Lyon9 - 1
2017-10-14 20:30:0014 octobre 2017 RHC Lyon vs SCRA Saint-Omer2 - 4Lyon 69009
2017-10-21 20:30:0021 octobre 2017 RHC Lyon vs La Vendeenne 20:30:0020 h 30 minLyon 69009
2017-10-28 20:30:0028 octobre 2017 Nantes ARH vs RHC Lyon 20:30:0020 h 30 min
2017-11-11 20:30:0011 novembre 2017 RHC Lyon vs ROC Vaulx-en-Velin 20:30:0020 h 30 minLyon 69009
2017-11-18 20:30:0018 novembre 2017 SA Merignac vs RHC Lyon 20:30:0020 h 30 min
2017-12-02 20:30:002 décembre 2017 RHC Lyon vs SPRS Ploufragan 20:30:0020 h 30 minLyon 69009
2017-12-18 20:30:0018 décembre 2017 CS Noisy le Grand vs RHC Lyon 20:30:0020 h 30 min
2018-01-20 20:30:0020 janvier 2018 RHC Lyon vs PA Crehen 20:30:0020 h 30 minLyon 69009
2018-01-27 20:30:0027 janvier 2018 US Coutras RH vs RHC Lyon 20:30:0020 h 30 minCoutras
2018-02-03 20:30:003 février 2018 AL Ploneour Lanvern vs RHC Lyon 20:30:0020 h 30 min
2018-02-10 20:30:0010 février 2018 RHC Lyon vs HC Dinan Quevert 20:30:0020 h 30 minLyon 69009
2018-03-03 20:30:003 mars 2018 SCRA Saint-Omer vs RHC Lyon 20:30:0020 h 30 min
2018-03-24 20:30:0024 mars 2018 La Vendeenne vs RHC Lyon 20:30:0020 h 30 min
2018-04-07 20:30:007 avril 2018 RHC Lyon vs Nantes ARH 20:30:0020 h 30 minLyon 69009
2018-04-14 20:30:0014 avril 2018 ROC Vaulx-en-Velin vs RHC Lyon 20:30:0020 h 30 min
2018-04-28 20:30:0028 avril 2018 RHC Lyon vs SA Merignac 20:30:0020 h 30 minLyon 69009
2018-05-05 20:30:005 mai 2018 SPRS Ploufragan vs RHC Lyon 20:30:0020 h 30 min
2018-05-19 20:30:0019 mai 2018 RHC Lyon vs CS Noisy le Grand 20:30:0020 h 30 minLyon 69009
2018-05-26 20:30:0026 mai 2018 PA Crehen vs RHC Lyon 20:30:0020 h 30 min
2018-06-02 20:30:002 juin 2018 RHC Lyon vs US Coutras RH 20:30:0020 h 30 minLyon 69009

Saison 2016-2017

DateÉvènementTemps/RésultatsLieu
2016-09-24 20:30:0424 septembre 2016 RHC Lyon vs AL Plonéour Lanvern3 - 3Lyon 69009
2016-10-01 20:30:001 octobre 2016 Poiré Roller vs RHC Lyon5 - 3
2016-10-08 20:30:008 octobre 2016 HC Dinan Quévert vs RHC Lyon10 - 2
2016-10-15 20:30:0015 octobre 2016 RHC Lyon vs US Coutras RH4 - 7Lyon 69009
2016-10-22 20:30:0022 octobre 2016 La Vendéenne vs RHC Lyon9 - 0
2016-11-12 20:30:0012 novembre 2016 RHC Lyon vs Nantes ARH2 - 5Lyon 69009
2016-11-19 20:30:0019 novembre 2016 SCRA Saint-Omer vs RHC Lyon10 - 4
2016-12-03 20:30:003 décembre 2016 RHC Lyon vs CO Pacéen RH8 - 4Lyon 69009
2017-01-07 20:30:007 janvier 2017 SPRS Ploufragan vs RHC Lyon7 - 0
2017-01-21 20:30:0021 janvier 2017 RHC Lyon vs CS Noisy le Grand RS6 - 4Lyon 69009
2017-01-28 20:30:0028 janvier 2017 SA Mérignac vs RHC Lyon10 - 6
2017-02-11 20:30:0011 février 2017 AL Plonéour Lanvern vs RHC Lyon5 - 4
2017-02-25 20:30:0025 février 2017 RHC Lyon vs Poiré Roller6 - 3Lyon 69009
2017-03-18 20:30:0018 mars 2017 RHC Lyon vs HC Dinan Quévert2 - 3Lyon 69009
2017-04-01 20:30:001 avril 2017 US Coutras RH vs RHC Lyon7 - 1
2017-04-08 20:30:008 avril 2017 RHC Lyon vs La Vendéenne3 - 7Lyon 69009
2017-04-29 20:30:0029 avril 2017 Nantes ARH vs RHC Lyon9 - 5
2017-05-06 21:00:006 mai 2017 RHC Lyon vs SCRA Saint-Omer4 - 4Lyon 69009
2017-05-20 20:30:0020 mai 2017 CO Pacéen RH vs RHC Lyon1 - 2
2017-05-27 20:30:0027 mai 2017 RHC Lyon vs SPRS Ploufragan3 - 0Lyon 69009
2017-06-03 20:30:003 juin 2017 CS Noisy le Grand RS vs RHC Lyon5 - 6
2017-06-10 20:30:0010 juin 2017 RHC Lyon vs SA Mérignac8 - 5Lyon 69009